sensor_id;sensor_type;location;lat;lon;timestamp;P1;durP1;ratioP1;P2;durP2;ratioP2
8048;SDS011;20935;42.660;23.342;2022-08-20T00:00:35;7.83;;;7.07;;
8048;SDS011;20935;42.660;23.342;2022-08-20T00:03:02;7.17;;;6.47;;
8048;SDS011;20935;42.660;23.342;2022-08-20T00:05:31;7.00;;;6.40;;
8048;SDS011;20935;42.660;23.342;2022-08-20T00:07:56;8.37;;;6.30;;
8048;SDS011;20935;42.660;23.342;2022-08-20T00:10:23;8.40;;;6.80;;
8048;SDS011;20935;42.660;23.342;2022-08-20T00:12:48;7.70;;;6.63;;
8048;SDS011;20935;42.660;23.342;2022-08-20T00:15:14;6.97;;;6.23;;
8048;SDS011;20935;42.660;23.342;2022-08-20T00:17:40;12.30;;;7.17;;
8048;SDS011;20935;42.660;23.342;2022-08-20T00:20:07;7.20;;;6.47;;
8048;SDS011;20935;42.660;23.342;2022-08-20T00:22:33;7.83;;;6.30;;
8048;SDS011;20935;42.660;23.342;2022-08-20T00:24:59;7.80;;;6.93;;
8048;SDS011;20935;42.660;23.342;2022-08-20T00:27:24;6.90;;;6.30;;
8048;SDS011;20935;42.660;23.342;2022-08-20T00:29:49;7.20;;;6.27;;
8048;SDS011;20935;42.660;23.342;2022-08-20T00:32:14;7.70;;;6.63;;
8048;SDS011;20935;42.660;23.342;2022-08-20T00:34:40;7.93;;;6.77;;
8048;SDS011;20935;42.660;23.342;2022-08-20T00:37:06;9.97;;;7.20;;
8048;SDS011;20935;42.660;23.342;2022-08-20T00:39:32;6.93;;;6.20;;
8048;SDS011;20935;42.660;23.342;2022-08-20T00:41:57;7.83;;;6.47;;
8048;SDS011;20935;42.660;23.342;2022-08-20T00:44:23;8.47;;;6.80;;
8048;SDS011;20935;42.660;23.342;2022-08-20T00:46:48;7.07;;;6.37;;
8048;SDS011;20935;42.660;23.342;2022-08-20T00:49:16;7.40;;;6.57;;
8048;SDS011;20935;42.660;23.342;2022-08-20T00:51:44;8.70;;;6.60;;
8048;SDS011;20935;42.660;23.342;2022-08-20T00:56:35;7.80;;;6.83;;
8048;SDS011;20935;42.660;23.342;2022-08-20T00:59:01;8.90;;;7.97;;
8048;SDS011;20935;42.660;23.342;2022-08-20T01:01:27;8.17;;;7.33;;
8048;SDS011;20935;42.660;23.342;2022-08-20T01:03:53;8.67;;;7.77;;
8048;SDS011;20935;42.660;23.342;2022-08-20T01:06:22;7.90;;;7.10;;
8048;SDS011;20935;42.660;23.342;2022-08-20T01:08:49;8.70;;;6.93;;
8048;SDS011;20935;42.660;23.342;2022-08-20T01:11:14;9.57;;;7.00;;
8048;SDS011;20935;42.660;23.342;2022-08-20T01:13:41;9.40;;;7.80;;
8048;SDS011;20935;42.660;23.342;2022-08-20T01:16:09;7.90;;;7.17;;
8048;SDS011;20935;42.660;23.342;2022-08-20T01:18:36;7.90;;;7.20;;
8048;SDS011;20935;42.660;23.342;2022-08-20T01:21:03;8.13;;;7.33;;
8048;SDS011;20935;42.660;23.342;2022-08-20T01:23:35;10.27;;;8.60;;
8048;SDS011;20935;42.660;23.342;2022-08-20T01:31:00;8.07;;;7.10;;
8048;SDS011;20935;42.660;23.342;2022-08-20T01:33:26;10.37;;;7.53;;
8048;SDS011;20935;42.660;23.342;2022-08-20T01:35:51;7.80;;;7.10;;
8048;SDS011;20935;42.660;23.342;2022-08-20T01:38:17;7.63;;;6.83;;
8048;SDS011;20935;42.660;23.342;2022-08-20T01:40:49;7.83;;;6.67;;
8048;SDS011;20935;42.660;23.342;2022-08-20T01:43:16;8.07;;;7.27;;
8048;SDS011;20935;42.660;23.342;2022-08-20T01:45:41;9.43;;;7.63;;
8048;SDS011;20935;42.660;23.342;2022-08-20T01:48:07;9.70;;;7.30;;
8048;SDS011;20935;42.660;23.342;2022-08-20T01:50:32;7.60;;;6.67;;
8048;SDS011;20935;42.660;23.342;2022-08-20T01:53:05;8.53;;;7.73;;
8048;SDS011;20935;42.660;23.342;2022-08-20T01:55:32;7.90;;;7.10;;
8048;SDS011;20935;42.660;23.342;2022-08-20T01:57:58;7.20;;;6.60;;
8048;SDS011;20935;42.660;23.342;2022-08-20T02:00:24;7.93;;;7.23;;
8048;SDS011;20935;42.660;23.342;2022-08-20T02:02:50;11.10;;;8.10;;
8048;SDS011;20935;42.660;23.342;2022-08-20T02:05:15;9.93;;;7.43;;
8048;SDS011;20935;42.660;23.342;2022-08-20T02:07:41;8.27;;;7.47;;
8048;SDS011;20935;42.660;23.342;2022-08-20T02:10:07;7.97;;;7.17;;
8048;SDS011;20935;42.660;23.342;2022-08-20T02:12:33;9.37;;;7.63;;
8048;SDS011;20935;42.660;23.342;2022-08-20T02:14:59;10.77;;;6.97;;
8048;SDS011;20935;42.660;23.342;2022-08-20T02:17:24;7.67;;;6.97;;
8048;SDS011;20935;42.660;23.342;2022-08-20T02:20:04;10.53;;;7.63;;
8048;SDS011;20935;42.660;23.342;2022-08-20T02:25:06;9.67;;;7.60;;
8048;SDS011;20935;42.660;23.342;2022-08-20T02:27:32;9.97;;;6.83;;
8048;SDS011;20935;42.660;23.342;2022-08-20T02:29:58;8.30;;;6.87;;
8048;SDS011;20935;42.660;23.342;2022-08-20T02:32:23;11.70;;;7.33;;
8048;SDS011;20935;42.660;23.342;2022-08-20T02:34:48;9.90;;;7.63;;
8048;SDS011;20935;42.660;23.342;2022-08-20T02:37:14;8.43;;;7.53;;
8048;SDS011;20935;42.660;23.342;2022-08-20T02:39:41;8.23;;;7.37;;
8048;SDS011;20935;42.660;23.342;2022-08-20T02:42:06;8.07;;;6.63;;
8048;SDS011;20935;42.660;23.342;2022-08-20T02:44:31;7.83;;;6.93;;
8048;SDS011;20935;42.660;23.342;2022-08-20T02:46:57;11.77;;;7.03;;
8048;SDS011;20935;42.660;23.342;2022-08-20T02:49:22;9.20;;;8.13;;
8048;SDS011;20935;42.660;23.342;2022-08-20T02:51:48;11.20;;;7.53;;
8048;SDS011;20935;42.660;23.342;2022-08-20T02:54:13;11.17;;;6.93;;
8048;SDS011;20935;42.660;23.342;2022-08-20T02:56:39;8.47;;;7.57;;
8048;SDS011;20935;42.660;23.342;2022-08-20T02:59:04;8.57;;;7.67;;
8048;SDS011;20935;42.660;23.342;2022-08-20T03:01:30;8.50;;;7.67;;
8048;SDS011;20935;42.660;23.342;2022-08-20T03:03:55;8.97;;;7.97;;
8048;SDS011;20935;42.660;23.342;2022-08-20T03:06:23;8.37;;;7.57;;
8048;SDS011;20935;42.660;23.342;2022-08-20T03:08:48;8.00;;;7.10;;
8048;SDS011;20935;42.660;23.342;2022-08-20T03:11:14;7.90;;;7.10;;
8048;SDS011;20935;42.660;23.342;2022-08-20T03:13:39;10.73;;;7.90;;
8048;SDS011;20935;42.660;23.342;2022-08-20T03:16:05;8.70;;;7.70;;
8048;SDS011;20935;42.660;23.342;2022-08-20T03:18:32;8.53;;;7.63;;
8048;SDS011;20935;42.660;23.342;2022-08-20T03:20:58;8.10;;;6.93;;
8048;SDS011;20935;42.660;23.342;2022-08-20T03:23:23;9.97;;;8.43;;
8048;SDS011;20935;42.660;23.342;2022-08-20T03:25:49;11.27;;;8.57;;
8048;SDS011;20935;42.660;23.342;2022-08-20T03:28:14;8.63;;;7.73;;
8048;SDS011;20935;42.660;23.342;2022-08-20T03:30:40;11.33;;;9.20;;
8048;SDS011;20935;42.660;23.342;2022-08-20T03:33:06;12.27;;;9.97;;
8048;SDS011;20935;42.660;23.342;2022-08-20T03:35:33;11.37;;;10.03;;
8048;SDS011;20935;42.660;23.342;2022-08-20T03:37:58;19.40;;;11.67;;
8048;SDS011;20935;42.660;23.342;2022-08-20T03:40:28;13.50;;;10.30;;
8048;SDS011;20935;42.660;23.342;2022-08-20T03:42:53;11.07;;;8.17;;
8048;SDS011;20935;42.660;23.342;2022-08-20T03:45:19;9.07;;;8.13;;
8048;SDS011;20935;42.660;23.342;2022-08-20T03:47:45;31.03;;;20.63;;
8048;SDS011;20935;42.660;23.342;2022-08-20T03:50:11;17.87;;;14.10;;
8048;SDS011;20935;42.660;23.342;2022-08-20T03:52:37;11.40;;;9.33;;
8048;SDS011;20935;42.660;23.342;2022-08-20T03:55:04;11.67;;;8.97;;
8048;SDS011;20935;42.660;23.342;2022-08-20T03:57:29;9.47;;;8.67;;
8048;SDS011;20935;42.660;23.342;2022-08-20T03:59:55;8.57;;;7.70;;
8048;SDS011;20935;42.660;23.342;2022-08-20T04:02:20;10.73;;;8.87;;
8048;SDS011;20935;42.660;23.342;2022-08-20T04:04:45;9.00;;;8.10;;
8048;SDS011;20935;42.660;23.342;2022-08-20T04:07:15;9.70;;;8.70;;
8048;SDS011;20935;42.660;23.342;2022-08-20T04:09:41;10.27;;;8.20;;
8048;SDS011;20935;42.660;23.342;2022-08-20T04:12:10;16.67;;;12.17;;
8048;SDS011;20935;42.660;23.342;2022-08-20T04:14:38;20.47;;;16.03;;
8048;SDS011;20935;42.660;23.342;2022-08-20T04:17:07;20.33;;;15.27;;
8048;SDS011;20935;42.660;23.342;2022-08-20T04:19:35;15.53;;;12.67;;
8048;SDS011;20935;42.660;23.342;2022-08-20T04:22:00;16.87;;;13.63;;
8048;SDS011;20935;42.660;23.342;2022-08-20T04:24:26;18.07;;;13.53;;
8048;SDS011;20935;42.660;23.342;2022-08-20T04:26:51;14.70;;;11.33;;
8048;SDS011;20935;42.660;23.342;2022-08-20T04:29:16;11.97;;;10.47;;
8048;SDS011;20935;42.660;23.342;2022-08-20T04:31:42;9.87;;;8.97;;
8048;SDS011;20935;42.660;23.342;2022-08-20T04:34:07;11.23;;;9.27;;
8048;SDS011;20935;42.660;23.342;2022-08-20T04:36:33;9.70;;;8.80;;
8048;SDS011;20935;42.660;23.342;2022-08-20T04:38:59;11.00;;;9.80;;
8048;SDS011;20935;42.660;23.342;2022-08-20T04:41:24;10.80;;;8.70;;
8048;SDS011;20935;42.660;23.342;2022-08-20T04:43:50;10.80;;;9.70;;
8048;SDS011;20935;42.660;23.342;2022-08-20T04:46:16;9.97;;;9.07;;
8048;SDS011;20935;42.660;23.342;2022-08-20T04:48:41;14.40;;;10.23;;
8048;SDS011;20935;42.660;23.342;2022-08-20T04:51:07;34.70;;;21.87;;
8048;SDS011;20935;42.660;23.342;2022-08-20T04:53:33;36.60;;;25.50;;
8048;SDS011;20935;42.660;23.342;2022-08-20T04:55:59;15.57;;;13.13;;
8048;SDS011;20935;42.660;23.342;2022-08-20T04:58:28;11.10;;;9.83;;
8048;SDS011;20935;42.660;23.342;2022-08-20T05:00:55;15.60;;;11.27;;
8048;SDS011;20935;42.660;23.342;2022-08-20T05:03:23;13.33;;;11.50;;
8048;SDS011;20935;42.660;23.342;2022-08-20T05:05:50;14.70;;;11.40;;
8048;SDS011;20935;42.660;23.342;2022-08-20T05:08:16;14.57;;;9.93;;
8048;SDS011;20935;42.660;23.342;2022-08-20T05:10:42;11.50;;;10.17;;
8048;SDS011;20935;42.660;23.342;2022-08-20T05:13:07;14.67;;;9.50;;
8048;SDS011;20935;42.660;23.342;2022-08-20T05:15:33;11.37;;;9.90;;
8048;SDS011;20935;42.660;23.342;2022-08-20T05:17:59;10.03;;;8.27;;
8048;SDS011;20935;42.660;23.342;2022-08-20T05:20:26;13.83;;;9.30;;
8048;SDS011;20935;42.660;23.342;2022-08-20T05:22:54;11.07;;;9.43;;
8048;SDS011;20935;42.660;23.342;2022-08-20T05:25:20;12.93;;;9.17;;
8048;SDS011;20935;42.660;23.342;2022-08-20T05:27:45;9.73;;;8.53;;
8048;SDS011;20935;42.660;23.342;2022-08-20T05:30:11;17.90;;;9.10;;
8048;SDS011;20935;42.660;23.342;2022-08-20T05:32:37;10.83;;;9.53;;
8048;SDS011;20935;42.660;23.342;2022-08-20T05:35:03;11.10;;;9.90;;
8048;SDS011;20935;42.660;23.342;2022-08-20T05:37:29;9.73;;;8.73;;
8048;SDS011;20935;42.660;23.342;2022-08-20T05:39:55;11.40;;;9.10;;
8048;SDS011;20935;42.660;23.342;2022-08-20T05:42:20;13.87;;;9.13;;
8048;SDS011;20935;42.660;23.342;2022-08-20T05:44:46;12.63;;;9.00;;
8048;SDS011;20935;42.660;23.342;2022-08-20T05:47:11;11.53;;;8.83;;
8048;SDS011;20935;42.660;23.342;2022-08-20T05:49:37;9.60;;;8.53;;
8048;SDS011;20935;42.660;23.342;2022-08-20T05:52:02;11.17;;;9.20;;
8048;SDS011;20935;42.660;23.342;2022-08-20T05:54:28;9.60;;;8.60;;
8048;SDS011;20935;42.660;23.342;2022-08-20T05:56:53;13.80;;;9.47;;
8048;SDS011;20935;42.660;23.342;2022-08-20T05:59:20;12.33;;;9.47;;
8048;SDS011;20935;42.660;23.342;2022-08-20T06:01:46;12.93;;;9.07;;
8048;SDS011;20935;42.660;23.342;2022-08-20T06:04:12;9.97;;;8.57;;
8048;SDS011;20935;42.660;23.342;2022-08-20T06:07:09;11.43;;;8.70;;
8048;SDS011;20935;42.660;23.342;2022-08-20T06:09:35;9.57;;;8.47;;
8048;SDS011;20935;42.660;23.342;2022-08-20T06:12:01;9.43;;;8.53;;
8048;SDS011;20935;42.660;23.342;2022-08-20T06:14:28;12.87;;;9.10;;
8048;SDS011;20935;42.660;23.342;2022-08-20T06:16:53;10.87;;;8.57;;
8048;SDS011;20935;42.660;23.342;2022-08-20T06:19:19;9.00;;;8.20;;
8048;SDS011;20935;42.660;23.342;2022-08-20T06:21:45;12.20;;;8.53;;
8048;SDS011;20935;42.660;23.342;2022-08-20T06:24:10;10.20;;;9.07;;
8048;SDS011;20935;42.660;23.342;2022-08-20T06:26:36;13.27;;;8.93;;
8048;SDS011;20935;42.660;23.342;2022-08-20T06:29:02;10.83;;;8.57;;
8048;SDS011;20935;42.660;23.342;2022-08-20T06:31:28;11.00;;;9.10;;
8048;SDS011;20935;42.660;23.342;2022-08-20T06:33:54;10.40;;;8.50;;
8048;SDS011;20935;42.660;23.342;2022-08-20T06:36:21;14.30;;;8.70;;
8048;SDS011;20935;42.660;23.342;2022-08-20T06:38:47;10.63;;;8.97;;
8048;SDS011;20935;42.660;23.342;2022-08-20T06:41:13;10.27;;;8.97;;
8048;SDS011;20935;42.660;23.342;2022-08-20T06:43:38;11.00;;;8.43;;
8048;SDS011;20935;42.660;23.342;2022-08-20T06:46:03;12.77;;;8.80;;
8048;SDS011;20935;42.660;23.342;2022-08-20T06:48:30;9.70;;;8.70;;
8048;SDS011;20935;42.660;23.342;2022-08-20T06:50:59;9.60;;;8.60;;
8048;SDS011;20935;42.660;23.342;2022-08-20T06:53:24;11.33;;;9.70;;
8048;SDS011;20935;42.660;23.342;2022-08-20T06:55:51;9.73;;;8.53;;
8048;SDS011;20935;42.660;23.342;2022-08-20T06:58:18;13.60;;;9.10;;
8048;SDS011;20935;42.660;23.342;2022-08-20T07:00:43;9.53;;;8.23;;
8048;SDS011;20935;42.660;23.342;2022-08-20T07:03:09;10.40;;;8.57;;
8048;SDS011;20935;42.660;23.342;2022-08-20T07:05:35;10.53;;;8.50;;
8048;SDS011;20935;42.660;23.342;2022-08-20T07:08:01;13.27;;;8.87;;
8048;SDS011;20935;42.660;23.342;2022-08-20T07:10:28;10.83;;;9.43;;
8048;SDS011;20935;42.660;23.342;2022-08-20T07:12:54;14.00;;;9.57;;
8048;SDS011;20935;42.660;23.342;2022-08-20T07:15:20;10.63;;;9.50;;
8048;SDS011;20935;42.660;23.342;2022-08-20T07:17:52;16.27;;;9.03;;
8048;SDS011;20935;42.660;23.342;2022-08-20T07:20:18;8.90;;;8.00;;
8048;SDS011;20935;42.660;23.342;2022-08-20T07:22:44;10.67;;;8.43;;
8048;SDS011;20935;42.660;23.342;2022-08-20T07:25:10;9.50;;;8.50;;
8048;SDS011;20935;42.660;23.342;2022-08-20T07:27:36;12.17;;;8.60;;
8048;SDS011;20935;42.660;23.342;2022-08-20T07:30:03;9.40;;;8.40;;
8048;SDS011;20935;42.660;23.342;2022-08-20T07:32:47;10.03;;;8.57;;
8048;SDS011;20935;42.660;23.342;2022-08-20T07:35:13;11.30;;;8.50;;
8048;SDS011;20935;42.660;23.342;2022-08-20T07:37:42;9.67;;;8.73;;
8048;SDS011;20935;42.660;23.342;2022-08-20T07:40:12;12.70;;;8.30;;
8048;SDS011;20935;42.660;23.342;2022-08-20T07:42:38;9.57;;;8.73;;
8048;SDS011;20935;42.660;23.342;2022-08-20T07:45:08;8.83;;;8.00;;
8048;SDS011;20935;42.660;23.342;2022-08-20T07:47:35;11.57;;;8.17;;
8048;SDS011;20935;42.660;23.342;2022-08-20T07:50:01;10.10;;;8.07;;
8048;SDS011;20935;42.660;23.342;2022-08-20T07:52:26;11.25;;;8.38;;
8048;SDS011;20935;42.660;23.342;2022-08-20T07:54:51;13.27;;;9.53;;
8048;SDS011;20935;42.660;23.342;2022-08-20T07:57:17;12.93;;;7.87;;
8048;SDS011;20935;42.660;23.342;2022-08-20T07:59:42;10.97;;;7.97;;
8048;SDS011;20935;42.660;23.342;2022-08-20T08:02:09;8.98;;;8.05;;
8048;SDS011;20935;42.660;23.342;2022-08-20T08:04:34;9.63;;;8.03;;
8048;SDS011;20935;42.660;23.342;2022-08-20T08:07:02;9.00;;;8.18;;
8048;SDS011;20935;42.660;23.342;2022-08-20T08:09:28;9.50;;;8.50;;
8048;SDS011;20935;42.660;23.342;2022-08-20T08:11:53;9.48;;;8.30;;
8048;SDS011;20935;42.660;23.342;2022-08-20T08:14:22;10.40;;;8.38;;
8048;SDS011;20935;42.660;23.342;2022-08-20T08:16:51;9.63;;;8.45;;
8048;SDS011;20935;42.660;23.342;2022-08-20T08:19:17;12.05;;;8.70;;
8048;SDS011;20935;42.660;23.342;2022-08-20T08:21:42;9.63;;;8.68;;
8048;SDS011;20935;42.660;23.342;2022-08-20T08:24:08;8.50;;;7.65;;
8048;SDS011;20935;42.660;23.342;2022-08-20T08:26:35;9.30;;;8.40;;
8048;SDS011;20935;42.660;23.342;2022-08-20T08:29:01;9.65;;;8.75;;
8048;SDS011;20935;42.660;23.342;2022-08-20T08:31:26;10.10;;;8.63;;
8048;SDS011;20935;42.660;23.342;2022-08-20T08:33:52;10.15;;;8.85;;
8048;SDS011;20935;42.660;23.342;2022-08-20T08:36:17;10.25;;;9.35;;
8048;SDS011;20935;42.660;23.342;2022-08-20T08:38:43;10.00;;;9.00;;
8048;SDS011;20935;42.660;23.342;2022-08-20T08:41:19;11.77;;;9.02;;
8048;SDS011;20935;42.660;23.342;2022-08-20T08:43:46;10.80;;;8.02;;
8048;SDS011;20935;42.660;23.342;2022-08-20T08:46:13;9.98;;;8.95;;
8048;SDS011;20935;42.660;23.342;2022-08-20T08:48:41;9.60;;;8.52;;
8048;SDS011;20935;42.660;23.342;2022-08-20T08:51:08;10.50;;;8.35;;
8048;SDS011;20935;42.660;23.342;2022-08-20T08:53:37;10.75;;;8.80;;
8048;SDS011;20935;42.660;23.342;2022-08-20T08:56:04;11.07;;;8.32;;
8048;SDS011;20935;42.660;23.342;2022-08-20T08:58:30;9.85;;;8.85;;
8048;SDS011;20935;42.660;23.342;2022-08-20T09:01:00;9.07;;;8.18;;
8048;SDS011;20935;42.660;23.342;2022-08-20T09:03:27;9.43;;;8.48;;
8048;SDS011;20935;42.660;23.342;2022-08-20T09:05:55;8.73;;;7.93;;
8048;SDS011;20935;42.660;23.342;2022-08-20T09:08:27;9.23;;;8.32;;
8048;SDS011;20935;42.660;23.342;2022-08-20T09:10:53;11.07;;;8.15;;
8048;SDS011;20935;42.660;23.342;2022-08-20T09:13:19;10.90;;;8.05;;
8048;SDS011;20935;42.660;23.342;2022-08-20T09:15:44;9.25;;;8.10;;
8048;SDS011;20935;42.660;23.342;2022-08-20T09:18:10;9.27;;;7.65;;
8048;SDS011;20935;42.660;23.342;2022-08-20T09:20:35;8.35;;;7.53;;
8048;SDS011;20935;42.660;23.342;2022-08-20T09:23:03;9.77;;;7.38;;
8048;SDS011;20935;42.660;23.342;2022-08-20T09:25:29;9.60;;;7.72;;
8048;SDS011;20935;42.660;23.342;2022-08-20T09:27:55;9.38;;;8.20;;
8048;SDS011;20935;42.660;23.342;2022-08-20T09:30:21;8.30;;;7.40;;
8048;SDS011;20935;42.660;23.342;2022-08-20T09:32:46;10.02;;;9.02;;
8048;SDS011;20935;42.660;23.342;2022-08-20T09:35:11;9.38;;;8.52;;
8048;SDS011;20935;42.660;23.342;2022-08-20T09:37:37;9.70;;;8.57;;
8048;SDS011;20935;42.660;23.342;2022-08-20T09:40:03;8.95;;;7.95;;
8048;SDS011;20935;42.660;23.342;2022-08-20T09:42:33;9.57;;;8.63;;
8048;SDS011;20935;42.660;23.342;2022-08-20T09:44:59;9.55;;;8.57;;
8048;SDS011;20935;42.660;23.342;2022-08-20T09:47:25;9.30;;;8.50;;
8048;SDS011;20935;42.660;23.342;2022-08-20T09:49:51;10.52;;;8.70;;
8048;SDS011;20935;42.660;23.342;2022-08-20T09:52:27;9.68;;;8.43;;
8048;SDS011;20935;42.660;23.342;2022-08-20T09:55:01;9.88;;;8.95;;
8048;SDS011;20935;42.660;23.342;2022-08-20T09:57:27;8.30;;;7.60;;
8048;SDS011;20935;42.660;23.342;2022-08-20T09:59:55;9.00;;;8.18;;
8048;SDS011;20935;42.660;23.342;2022-08-20T10:02:21;8.32;;;7.63;;
8048;SDS011;20935;42.660;23.342;2022-08-20T10:04:47;8.77;;;7.88;;
8048;SDS011;20935;42.660;23.342;2022-08-20T10:07:12;8.23;;;7.63;;
8048;SDS011;20935;42.660;23.342;2022-08-20T10:09:37;10.15;;;8.30;;
8048;SDS011;20935;42.660;23.342;2022-08-20T10:12:03;8.68;;;7.88;;
8048;SDS011;20935;42.660;23.342;2022-08-20T10:14:28;13.02;;;7.88;;
8048;SDS011;20935;42.660;23.342;2022-08-20T10:16:55;8.68;;;7.75;;
8048;SDS011;20935;42.660;23.342;2022-08-20T10:19:20;9.13;;;7.30;;
8048;SDS011;20935;42.660;23.342;2022-08-20T10:21:45;8.68;;;7.65;;
8048;SDS011;20935;42.660;23.342;2022-08-20T10:24:10;8.82;;;7.95;;
8048;SDS011;20935;42.660;23.342;2022-08-20T10:26:36;9.57;;;8.15;;
8048;SDS011;20935;42.660;23.342;2022-08-20T10:29:02;9.02;;;7.82;;
8048;SDS011;20935;42.660;23.342;2022-08-20T10:31:27;9.65;;;8.15;;
8048;SDS011;20935;42.660;23.342;2022-08-20T10:33:52;9.00;;;8.10;;
8048;SDS011;20935;42.660;23.342;2022-08-20T10:36:17;8.75;;;7.88;;
8048;SDS011;20935;42.660;23.342;2022-08-20T10:38:43;8.43;;;7.50;;
8048;SDS011;20935;42.660;23.342;2022-08-20T10:41:09;9.48;;;7.80;;
8048;SDS011;20935;42.660;23.342;2022-08-20T10:43:34;8.13;;;7.43;;
8048;SDS011;20935;42.660;23.342;2022-08-20T10:45:59;8.77;;;7.57;;
8048;SDS011;20935;42.660;23.342;2022-08-20T10:48:25;8.30;;;7.55;;
8048;SDS011;20935;42.660;23.342;2022-08-20T10:50:50;11.30;;;8.32;;
8048;SDS011;20935;42.660;23.342;2022-08-20T10:53:15;7.60;;;6.82;;
8048;SDS011;20935;42.660;23.342;2022-08-20T10:55:41;11.88;;;7.78;;
8048;SDS011;20935;42.660;23.342;2022-08-20T10:58:06;8.20;;;7.60;;
8048;SDS011;20935;42.660;23.342;2022-08-20T11:00:32;9.07;;;8.20;;
8048;SDS011;20935;42.660;23.342;2022-08-20T11:02:58;10.32;;;7.68;;
8048;SDS011;20935;42.660;23.342;2022-08-20T11:05:23;8.02;;;7.28;;
8048;SDS011;20935;42.660;23.342;2022-08-20T11:07:49;8.93;;;8.00;;
8048;SDS011;20935;42.660;23.342;2022-08-20T11:10:14;9.73;;;8.38;;
8048;SDS011;20935;42.660;23.342;2022-08-20T11:12:40;8.90;;;8.00;;
8048;SDS011;20935;42.660;23.342;2022-08-20T11:15:05;9.48;;;7.78;;
8048;SDS011;20935;42.660;23.342;2022-08-20T11:17:32;8.77;;;7.95;;
8048;SDS011;20935;42.660;23.342;2022-08-20T11:19:58;9.07;;;8.13;;
8048;SDS011;20935;42.660;23.342;2022-08-20T11:22:24;10.88;;;7.80;;
8048;SDS011;20935;42.660;23.342;2022-08-20T11:24:50;10.52;;;7.68;;
8048;SDS011;20935;42.660;23.342;2022-08-20T11:27:37;9.27;;;8.30;;
8048;SDS011;20935;42.660;23.342;2022-08-20T11:30:03;8.65;;;7.93;;
8048;SDS011;20935;42.660;23.342;2022-08-20T11:32:28;9.35;;;7.95;;
8048;SDS011;20935;42.660;23.342;2022-08-20T11:34:53;8.45;;;7.65;;
8048;SDS011;20935;42.660;23.342;2022-08-20T11:37:19;9.60;;;7.55;;
8048;SDS011;20935;42.660;23.342;2022-08-20T11:39:45;8.48;;;7.70;;
8048;SDS011;20935;42.660;23.342;2022-08-20T11:42:11;9.02;;;8.32;;
8048;SDS011;20935;42.660;23.342;2022-08-20T11:44:36;11.85;;;7.65;;
8048;SDS011;20935;42.660;23.342;2022-08-20T11:47:02;8.05;;;7.05;;
8048;SDS011;20935;42.660;23.342;2022-08-20T11:49:29;9.40;;;7.90;;
8048;SDS011;20935;42.660;23.342;2022-08-20T11:51:54;8.18;;;7.38;;
8048;SDS011;20935;42.660;23.342;2022-08-20T11:54:19;8.73;;;7.93;;
8048;SDS011;20935;42.660;23.342;2022-08-20T11:56:44;11.73;;;7.53;;
8048;SDS011;20935;42.660;23.342;2022-08-20T11:59:10;12.60;;;8.02;;
8048;SDS011;20935;42.660;23.342;2022-08-20T12:01:35;9.43;;;7.63;;
8048;SDS011;20935;42.660;23.342;2022-08-20T12:04:00;8.82;;;7.95;;
8048;SDS011;20935;42.660;23.342;2022-08-20T12:06:26;8.60;;;7.80;;
8048;SDS011;20935;42.660;23.342;2022-08-20T12:08:52;8.23;;;7.60;;
8048;SDS011;20935;42.660;23.342;2022-08-20T12:11:17;7.47;;;6.80;;
8048;SDS011;20935;42.660;23.342;2022-08-20T12:13:45;8.18;;;7.38;;
8048;SDS011;20935;42.660;23.342;2022-08-20T12:16:11;8.75;;;7.90;;
8048;SDS011;20935;42.660;23.342;2022-08-20T12:18:36;8.60;;;7.57;;
8048;SDS011;20935;42.660;23.342;2022-08-20T12:21:01;10.45;;;7.55;;
8048;SDS011;20935;42.660;23.342;2022-08-20T12:23:27;8.07;;;7.28;;
8048;SDS011;20935;42.660;23.342;2022-08-20T12:25:52;7.55;;;6.85;;
8048;SDS011;20935;42.660;23.342;2022-08-20T12:28:18;7.82;;;7.03;;
8048;SDS011;20935;42.660;23.342;2022-08-20T12:30:43;14.65;;;8.80;;
8048;SDS011;20935;42.660;23.342;2022-08-20T12:33:08;13.00;;;9.48;;
8048;SDS011;20935;42.660;23.342;2022-08-20T12:35:34;13.52;;;9.23;;
8048;SDS011;20935;42.660;23.342;2022-08-20T12:38:03;20.88;;;10.95;;
8048;SDS011;20935;42.660;23.342;2022-08-20T12:40:29;17.40;;;11.63;;
8048;SDS011;20935;42.660;23.342;2022-08-20T12:42:55;16.03;;;11.30;;
8048;SDS011;20935;42.660;23.342;2022-08-20T12:45:21;18.43;;;11.83;;
8048;SDS011;20935;42.660;23.342;2022-08-20T12:47:47;22.20;;;14.77;;
8048;SDS011;20935;42.660;23.342;2022-08-20T12:50:20;20.57;;;14.63;;
8048;SDS011;20935;42.660;23.342;2022-08-20T12:52:46;23.03;;;14.67;;
8048;SDS011;20935;42.660;23.342;2022-08-20T12:55:12;24.03;;;15.80;;
8048;SDS011;20935;42.660;23.342;2022-08-20T12:57:39;24.33;;;15.00;;
8048;SDS011;20935;42.660;23.342;2022-08-20T13:02:32;23.87;;;16.27;;
8048;SDS011;20935;42.660;23.342;2022-08-20T13:04:58;17.13;;;13.73;;
8048;SDS011;20935;42.660;23.342;2022-08-20T13:07:23;17.43;;;13.90;;
8048;SDS011;20935;42.660;23.342;2022-08-20T13:09:48;17.50;;;13.80;;
8048;SDS011;20935;42.660;23.342;2022-08-20T13:12:14;23.23;;;14.43;;
8048;SDS011;20935;42.660;23.342;2022-08-20T13:14:39;23.87;;;15.17;;
8048;SDS011;20935;42.660;23.342;2022-08-20T13:17:05;21.63;;;15.07;;
8048;SDS011;20935;42.660;23.342;2022-08-20T13:19:31;17.30;;;12.93;;
8048;SDS011;20935;42.660;23.342;2022-08-20T13:21:57;15.97;;;14.37;;
8048;SDS011;20935;42.660;23.342;2022-08-20T13:24:22;20.23;;;14.10;;
8048;SDS011;20935;42.660;23.342;2022-08-20T13:26:48;17.63;;;12.70;;
8048;SDS011;20935;42.660;23.342;2022-08-20T13:29:14;18.70;;;14.13;;
8048;SDS011;20935;42.660;23.342;2022-08-20T13:31:39;18.00;;;14.07;;
8048;SDS011;20935;42.660;23.342;2022-08-20T13:34:05;23.37;;;14.07;;
8048;SDS011;20935;42.660;23.342;2022-08-20T13:36:30;20.67;;;15.93;;
8048;SDS011;20935;42.660;23.342;2022-08-20T13:38:55;20.00;;;14.97;;
8048;SDS011;20935;42.660;23.342;2022-08-20T13:41:21;22.00;;;14.83;;
8048;SDS011;20935;42.660;23.342;2022-08-20T13:43:46;20.70;;;16.70;;
8048;SDS011;20935;42.660;23.342;2022-08-20T13:46:11;17.57;;;15.17;;
8048;SDS011;20935;42.660;23.342;2022-08-20T13:48:37;15.00;;;12.77;;
8048;SDS011;20935;42.660;23.342;2022-08-20T13:51:02;16.27;;;14.33;;
8048;SDS011;20935;42.660;23.342;2022-08-20T13:53:28;14.30;;;12.90;;
8048;SDS011;20935;42.660;23.342;2022-08-20T13:55:53;17.53;;;15.00;;
8048;SDS011;20935;42.660;23.342;2022-08-20T13:58:20;17.20;;;15.40;;
8048;SDS011;20935;42.660;23.342;2022-08-20T14:00:46;19.60;;;16.30;;
8048;SDS011;20935;42.660;23.342;2022-08-20T14:03:12;17.90;;;14.27;;
8048;SDS011;20935;42.660;23.342;2022-08-20T14:05:37;16.57;;;13.40;;
8048;SDS011;20935;42.660;23.342;2022-08-20T14:08:04;14.33;;;12.93;;
8048;SDS011;20935;42.660;23.342;2022-08-20T14:10:30;15.80;;;13.93;;
8048;SDS011;20935;42.660;23.342;2022-08-20T14:12:57;18.50;;;13.87;;
8048;SDS011;20935;42.660;23.342;2022-08-20T14:15:22;16.90;;;15.27;;
8048;SDS011;20935;42.660;23.342;2022-08-20T14:17:49;15.73;;;14.33;;
8048;SDS011;20935;42.660;23.342;2022-08-20T14:20:16;17.53;;;15.37;;
8048;SDS011;20935;42.660;23.342;2022-08-20T14:22:42;17.67;;;16.07;;
8048;SDS011;20935;42.660;23.342;2022-08-20T14:25:09;17.83;;;16.00;;
8048;SDS011;20935;42.660;23.342;2022-08-20T14:27:34;19.30;;;14.93;;
8048;SDS011;20935;42.660;23.342;2022-08-20T14:30:00;17.23;;;15.63;;
8048;SDS011;20935;42.660;23.342;2022-08-20T14:32:27;16.47;;;14.90;;
8048;SDS011;20935;42.660;23.342;2022-08-20T14:34:52;15.93;;;14.30;;
8048;SDS011;20935;42.660;23.342;2022-08-20T14:37:24;17.40;;;15.60;;
8048;SDS011;20935;42.660;23.342;2022-08-20T14:39:51;16.30;;;14.60;;
8048;SDS011;20935;42.660;23.342;2022-08-20T14:42:17;15.67;;;14.27;;
8048;SDS011;20935;42.660;23.342;2022-08-20T14:44:42;15.93;;;14.33;;